Aérodrome :
LOGIN :

S'inscrire | Disclaimer

   EN    FR    IT 

 










Légende :    VFR   VFR Marginal   IFR   IFR Intensif   IFR Très Intensif
Visi : 
Plafond : 
>= 8 km
>= 3000ft
5 à 8 km
1000 à 3000 ft
1500m à 5 km
500 à 1000 ft
800 à 1500m
200 à 500 ft
< 800m
< 200 ft
Symboles :   Orages  Brouillard  Fortes neiges  Fortes précipitations  Vent > 20 kt
SIGMETs :   Divers  Orages  Givrage  Turbulence  Onde Orograph.  Cendres Volcan.







- Altitude de l'aérodrome : 788 ft
- Code IATA : DCM
- Voir les cartes d'approche


LFCK - Castres-Mazamet

DERNIER METAR :
  • 191030Z AUTO 30011KT 9999 FEW019 BKN028 OVC034 12/08 Q1010 BECMG SCT040TCU

METARs EXPIRÉS :
  • 191000Z AUTO 29011KT 9999 FEW021 OVC031 12/08 Q1011 NOSIG
  • 190930Z AUTO 29010KT 9999 SCT015 OVC023 11/08 Q1011 NOSIG
  • 190900Z AUTO 29008KT 9999 BKN014 OVC024 11/08 Q1010 BECMG BKN025
  • 190830Z AUTO 28006KT 9999 BKN012 BKN018 BKN024 10/08 Q1010 BECMG BKN025
  • 190800Z AUTO 29007KT 9999 BKN013 BKN019 OVC027 10/08 Q1010 NOSIG

TAF TAF LFCK
Valide du 19 à 09h jusqu'au 19 à 18h UTC


190800Z 1909/1918 29008KT 9999 BKN012
BECMG 1910/1912 BKN025
BECMG 1912/1914 SCT040TCU
TEMPO 1915/1918 -SHRA
Pas de NOTAMs connus pour ce terrain.



MET'MAP, la Météo Aéronautique d'un coup d'oeil ! - Copyright ORBIFLY Décembre 2007 - Disclaimer

ORBIFLY MET'MAP TEAM :

Programmation & Développement : Alexandra Zaïnal
Conception & Développement : Baudouin d'Aumeries
Co-Programmation & Développement : Marc-Olivier Méhu
Soutien technique & logistique : Manuel Goepfert

Contact : metmap@orbifly.com




SOURCES & CREDITS :

   NOAA